sensor_id;sensor_type;location;lat;lon;timestamp;temperature;humidity
9810;DHT22;4944;52.514;13.192;2023-04-21T00:00:14;11.80;99.90
9810;DHT22;4944;52.514;13.192;2023-04-21T00:02:41;11.80;99.90
9810;DHT22;4944;52.514;13.192;2023-04-21T00:05:09;11.80;99.90
9810;DHT22;4944;52.514;13.192;2023-04-21T00:07:39;11.80;99.90
9810;DHT22;4944;52.514;13.192;2023-04-21T00:10:07;11.80;99.90
9810;DHT22;4944;52.514;13.192;2023-04-21T00:12:34;11.70;99.90
9810;DHT22;4944;52.514;13.192;2023-04-21T00:15:02;11.70;99.90
9810;DHT22;4944;52.514;13.192;2023-04-21T00:17:29;11.70;99.90
9810;DHT22;4944;52.514;13.192;2023-04-21T00:19:56;11.70;99.90
9810;DHT22;4944;52.514;13.192;2023-04-21T00:22:23;11.70;99.90
9810;DHT22;4944;52.514;13.192;2023-04-21T00:24:51;11.70;99.90
9810;DHT22;4944;52.514;13.192;2023-04-21T00:27:18;11.70;99.90
9810;DHT22;4944;52.514;13.192;2023-04-21T00:29:45;11.70;99.90
9810;DHT22;4944;52.514;13.192;2023-04-21T00:32:12;11.70;99.90
9810;DHT22;4944;52.514;13.192;2023-04-21T00:34:39;11.60;99.90
9810;DHT22;4944;52.514;13.192;2023-04-21T00:37:06;11.60;99.90
9810;DHT22;4944;52.514;13.192;2023-04-21T00:39:33;11.60;99.90
9810;DHT22;4944;52.514;13.192;2023-04-21T00:42:01;11.60;99.90
9810;DHT22;4944;52.514;13.192;2023-04-21T00:44:28;11.60;99.90
9810;DHT22;4944;52.514;13.192;2023-04-21T00:46:55;11.60;99.90
9810;DHT22;4944;52.514;13.192;2023-04-21T00:49:23;11.60;99.90
9810;DHT22;4944;52.514;13.192;2023-04-21T00:51:51;11.60;99.90
9810;DHT22;4944;52.514;13.192;2023-04-21T00:54:18;11.60;99.90
9810;DHT22;4944;52.514;13.192;2023-04-21T00:56:46;11.50;99.90
9810;DHT22;4944;52.514;13.192;2023-04-21T00:59:14;11.50;99.90
9810;DHT22;4944;52.514;13.192;2023-04-21T01:01:41;11.50;99.90
9810;DHT22;4944;52.514;13.192;2023-04-21T01:04:08;11.50;99.90
9810;DHT22;4944;52.514;13.192;2023-04-21T01:06:35;11.40;99.90
9810;DHT22;4944;52.514;13.192;2023-04-21T01:09:03;11.40;99.90
9810;DHT22;4944;52.514;13.192;2023-04-21T01:11:30;11.40;99.90
9810;DHT22;4944;52.514;13.192;2023-04-21T01:13:57;11.40;99.90
9810;DHT22;4944;52.514;13.192;2023-04-21T01:16:25;11.30;99.90
9810;DHT22;4944;52.514;13.192;2023-04-21T01:18:54;11.40;99.90
9810;DHT22;4944;52.514;13.192;2023-04-21T01:21:20;11.30;99.90
9810;DHT22;4944;52.514;13.192;2023-04-21T01:23:50;11.30;99.90
9810;DHT22;4944;52.514;13.192;2023-04-21T01:26:17;11.30;99.90
9810;DHT22;4944;52.514;13.192;2023-04-21T01:28:46;11.30;99.90
9810;DHT22;4944;52.514;13.192;2023-04-21T01:31:13;11.30;99.90
9810;DHT22;4944;52.514;13.192;2023-04-21T01:33:40;11.30;99.90
9810;DHT22;4944;52.514;13.192;2023-04-21T01:36:08;11.30;99.90
9810;DHT22;4944;52.514;13.192;2023-04-21T01:38:37;11.20;99.90
9810;DHT22;4944;52.514;13.192;2023-04-21T01:41:05;11.20;99.90
9810;DHT22;4944;52.514;13.192;2023-04-21T01:43:32;11.20;99.90
9810;DHT22;4944;52.514;13.192;2023-04-21T01:45:59;11.20;99.90
9810;DHT22;4944;52.514;13.192;2023-04-21T01:48:26;11.20;99.90
9810;DHT22;4944;52.514;13.192;2023-04-21T01:50:53;11.20;99.90
9810;DHT22;4944;52.514;13.192;2023-04-21T01:53:20;11.10;99.90
9810;DHT22;4944;52.514;13.192;2023-04-21T01:55:47;11.20;99.90
9810;DHT22;4944;52.514;13.192;2023-04-21T01:58:15;11.10;99.90
9810;DHT22;4944;52.514;13.192;2023-04-21T02:00:42;11.10;99.90
9810;DHT22;4944;52.514;13.192;2023-04-21T02:03:09;11.10;99.90
9810;DHT22;4944;52.514;13.192;2023-04-21T02:05:36;11.00;99.90
9810;DHT22;4944;52.514;13.192;2023-04-21T02:08:03;11.00;99.90
9810;DHT22;4944;52.514;13.192;2023-04-21T02:10:31;11.00;99.90
9810;DHT22;4944;52.514;13.192;2023-04-21T02:12:57;11.00;99.90
9810;DHT22;4944;52.514;13.192;2023-04-21T02:15:27;11.00;99.90
9810;DHT22;4944;52.514;13.192;2023-04-21T02:17:53;11.00;99.90
9810;DHT22;4944;52.514;13.192;2023-04-21T02:20:20;11.00;99.90
9810;DHT22;4944;52.514;13.192;2023-04-21T02:22:47;11.00;99.90
9810;DHT22;4944;52.514;13.192;2023-04-21T02:25:14;11.00;99.90
9810;DHT22;4944;52.514;13.192;2023-04-21T02:27:41;11.00;99.90
9810;DHT22;4944;52.514;13.192;2023-04-21T02:30:08;11.00;99.90
9810;DHT22;4944;52.514;13.192;2023-04-21T02:32:37;10.90;99.90
9810;DHT22;4944;52.514;13.192;2023-04-21T02:35:04;10.90;99.90
9810;DHT22;4944;52.514;13.192;2023-04-21T02:37:31;10.90;99.90
9810;DHT22;4944;52.514;13.192;2023-04-21T02:39:58;10.90;99.90
9810;DHT22;4944;52.514;13.192;2023-04-21T02:42:25;10.90;99.90
9810;DHT22;4944;52.514;13.192;2023-04-21T02:44:52;10.90;99.90
9810;DHT22;4944;52.514;13.192;2023-04-21T02:47:19;10.80;99.90
9810;DHT22;4944;52.514;13.192;2023-04-21T02:49:47;10.80;99.90
9810;DHT22;4944;52.514;13.192;2023-04-21T02:52:14;10.80;99.90
9810;DHT22;4944;52.514;13.192;2023-04-21T02:54:41;10.80;99.90
9810;DHT22;4944;52.514;13.192;2023-04-21T02:57:08;10.80;99.90
9810;DHT22;4944;52.514;13.192;2023-04-21T02:59:35;10.80;99.90
9810;DHT22;4944;52.514;13.192;2023-04-21T03:02:02;10.80;99.90
9810;DHT22;4944;52.514;13.192;2023-04-21T03:04:29;10.80;99.90
9810;DHT22;4944;52.514;13.192;2023-04-21T03:06:58;10.80;99.90
9810;DHT22;4944;52.514;13.192;2023-04-21T03:09:25;10.80;99.90
9810;DHT22;4944;52.514;13.192;2023-04-21T03:11:52;10.80;99.90
9810;DHT22;4944;52.514;13.192;2023-04-21T03:14:18;10.80;99.90
9810;DHT22;4944;52.514;13.192;2023-04-21T03:16:45;10.80;99.90
9810;DHT22;4944;52.514;13.192;2023-04-21T03:19:13;10.80;99.90
9810;DHT22;4944;52.514;13.192;2023-04-21T03:21:40;10.80;99.90
9810;DHT22;4944;52.514;13.192;2023-04-21T03:24:08;10.80;99.90
9810;DHT22;4944;52.514;13.192;2023-04-21T03:26:37;10.80;99.90
9810;DHT22;4944;52.514;13.192;2023-04-21T03:29:04;10.80;99.90
9810;DHT22;4944;52.514;13.192;2023-04-21T03:31:31;10.80;99.90
9810;DHT22;4944;52.514;13.192;2023-04-21T03:33:58;10.70;99.90
9810;DHT22;4944;52.514;13.192;2023-04-21T03:36:25;10.70;99.90
9810;DHT22;4944;52.514;13.192;2023-04-21T03:38:52;10.70;99.90
9810;DHT22;4944;52.514;13.192;2023-04-21T03:41:20;10.70;99.90
9810;DHT22;4944;52.514;13.192;2023-04-21T03:43:49;10.60;99.90
9810;DHT22;4944;52.514;13.192;2023-04-21T03:46:17;10.70;99.90
9810;DHT22;4944;52.514;13.192;2023-04-21T03:48:45;10.70;99.90
9810;DHT22;4944;52.514;13.192;2023-04-21T03:51:12;10.60;99.90
9810;DHT22;4944;52.514;13.192;2023-04-21T03:53:39;10.60;99.90
9810;DHT22;4944;52.514;13.192;2023-04-21T03:56:07;10.60;99.90
9810;DHT22;4944;52.514;13.192;2023-04-21T03:58:36;10.60;99.90
9810;DHT22;4944;52.514;13.192;2023-04-21T04:01:04;10.60;99.90
9810;DHT22;4944;52.514;13.192;2023-04-21T04:03:32;10.50;99.90
9810;DHT22;4944;52.514;13.192;2023-04-21T04:05:58;10.50;99.90
9810;DHT22;4944;52.514;13.192;2023-04-21T04:08:27;10.50;99.90
9810;DHT22;4944;52.514;13.192;2023-04-21T04:10:54;10.50;99.90
9810;DHT22;4944;52.514;13.192;2023-04-21T04:13:21;10.50;99.90
9810;DHT22;4944;52.514;13.192;2023-04-21T04:15:50;10.40;99.90
9810;DHT22;4944;52.514;13.192;2023-04-21T04:18:17;10.40;99.90
9810;DHT22;4944;52.514;13.192;2023-04-21T04:20:44;10.40;99.90
9810;DHT22;4944;52.514;13.192;2023-04-21T04:23:11;10.40;99.90
9810;DHT22;4944;52.514;13.192;2023-04-21T04:25:38;10.40;99.90
9810;DHT22;4944;52.514;13.192;2023-04-21T04:28:05;10.30;99.90
9810;DHT22;4944;52.514;13.192;2023-04-21T04:30:33;10.40;99.90
9810;DHT22;4944;52.514;13.192;2023-04-21T04:33:03;10.40;99.90
9810;DHT22;4944;52.514;13.192;2023-04-21T04:35:30;10.40;99.90
9810;DHT22;4944;52.514;13.192;2023-04-21T04:37:57;10.40;99.90
9810;DHT22;4944;52.514;13.192;2023-04-21T04:40:24;10.50;99.90
9810;DHT22;4944;52.514;13.192;2023-04-21T04:42:50;10.50;99.90
9810;DHT22;4944;52.514;13.192;2023-04-21T04:45:17;10.50;99.90
9810;DHT22;4944;52.514;13.192;2023-04-21T04:47:47;10.50;99.90
9810;DHT22;4944;52.514;13.192;2023-04-21T04:50:15;10.50;99.90
9810;DHT22;4944;52.514;13.192;2023-04-21T04:52:42;10.50;99.90
9810;DHT22;4944;52.514;13.192;2023-04-21T04:55:11;10.50;99.90
9810;DHT22;4944;52.514;13.192;2023-04-21T04:57:39;10.50;99.90
9810;DHT22;4944;52.514;13.192;2023-04-21T05:00:07;10.50;99.90
9810;DHT22;4944;52.514;13.192;2023-04-21T05:02:36;10.50;99.90
9810;DHT22;4944;52.514;13.192;2023-04-21T05:05:03;10.40;99.90
9810;DHT22;4944;52.514;13.192;2023-04-21T05:07:32;10.40;99.90
9810;DHT22;4944;52.514;13.192;2023-04-21T05:09:59;10.40;99.90
9810;DHT22;4944;52.514;13.192;2023-04-21T05:12:27;10.50;99.90
9810;DHT22;4944;52.514;13.192;2023-04-21T05:14:54;10.50;99.90
9810;DHT22;4944;52.514;13.192;2023-04-21T05:17:20;10.50;99.90
9810;DHT22;4944;52.514;13.192;2023-04-21T05:19:47;10.50;99.90
9810;DHT22;4944;52.514;13.192;2023-04-21T05:22:14;10.50;99.90
9810;DHT22;4944;52.514;13.192;2023-04-21T05:24:43;10.60;99.90
9810;DHT22;4944;52.514;13.192;2023-04-21T05:27:10;10.60;99.90
9810;DHT22;4944;52.514;13.192;2023-04-21T05:29:37;10.60;99.90
9810;DHT22;4944;52.514;13.192;2023-04-21T05:32:03;10.70;99.90
9810;DHT22;4944;52.514;13.192;2023-04-21T05:34:31;10.70;99.90
9810;DHT22;4944;52.514;13.192;2023-04-21T05:36:58;10.70;99.90
9810;DHT22;4944;52.514;13.192;2023-04-21T05:39:26;10.80;99.90
9810;DHT22;4944;52.514;13.192;2023-04-21T05:41:54;10.80;99.90
9810;DHT22;4944;52.514;13.192;2023-04-21T05:44:21;10.80;99.90
9810;DHT22;4944;52.514;13.192;2023-04-21T05:46:49;10.80;99.90
9810;DHT22;4944;52.514;13.192;2023-04-21T05:49:16;10.90;99.90
9810;DHT22;4944;52.514;13.192;2023-04-21T05:51:43;10.90;99.90
9810;DHT22;4944;52.514;13.192;2023-04-21T05:54:10;11.00;99.90
9810;DHT22;4944;52.514;13.192;2023-04-21T05:56:37;11.00;99.90
9810;DHT22;4944;52.514;13.192;2023-04-21T05:59:05;11.00;99.90
9810;DHT22;4944;52.514;13.192;2023-04-21T06:01:32;11.00;99.90
9810;DHT22;4944;52.514;13.192;2023-04-21T06:03:59;11.10;99.90
9810;DHT22;4944;52.514;13.192;2023-04-21T06:06:26;11.10;99.90
9810;DHT22;4944;52.514;13.192;2023-04-21T06:08:53;11.20;99.90
9810;DHT22;4944;52.514;13.192;2023-04-21T06:11:20;11.20;99.90
9810;DHT22;4944;52.514;13.192;2023-04-21T06:13:48;11.20;99.90
9810;DHT22;4944;52.514;13.192;2023-04-21T06:16:16;11.30;99.90
9810;DHT22;4944;52.514;13.192;2023-04-21T06:18:43;11.30;99.90
9810;DHT22;4944;52.514;13.192;2023-04-21T06:21:10;11.30;99.90
9810;DHT22;4944;52.514;13.192;2023-04-21T06:23:37;11.40;99.90
9810;DHT22;4944;52.514;13.192;2023-04-21T06:26:05;11.40;99.90
9810;DHT22;4944;52.514;13.192;2023-04-21T06:28:34;11.40;99.90
9810;DHT22;4944;52.514;13.192;2023-04-21T06:31:02;11.50;99.90
9810;DHT22;4944;52.514;13.192;2023-04-21T06:33:31;11.50;99.90
9810;DHT22;4944;52.514;13.192;2023-04-21T06:35:57;11.50;99.90
9810;DHT22;4944;52.514;13.192;2023-04-21T06:38:24;11.60;99.90
9810;DHT22;4944;52.514;13.192;2023-04-21T06:40:51;11.60;99.90
9810;DHT22;4944;52.514;13.192;2023-04-21T06:43:19;11.70;99.90
9810;DHT22;4944;52.514;13.192;2023-04-21T06:45:45;11.70;99.90
9810;DHT22;4944;52.514;13.192;2023-04-21T06:48:12;11.80;99.90
9810;DHT22;4944;52.514;13.192;2023-04-21T06:50:40;11.80;99.90
9810;DHT22;4944;52.514;13.192;2023-04-21T06:53:09;11.90;99.90
9810;DHT22;4944;52.514;13.192;2023-04-21T06:55:36;11.90;99.90
9810;DHT22;4944;52.514;13.192;2023-04-21T06:58:03;12.00;99.90
9810;DHT22;4944;52.514;13.192;2023-04-21T07:00:30;12.00;99.90
9810;DHT22;4944;52.514;13.192;2023-04-21T07:02:57;12.00;99.90
9810;DHT22;4944;52.514;13.192;2023-04-21T07:05:24;12.00;99.90
9810;DHT22;4944;52.514;13.192;2023-04-21T07:07:52;12.00;99.90
9810;DHT22;4944;52.514;13.192;2023-04-21T07:10:24;12.10;99.90
9810;DHT22;4944;52.514;13.192;2023-04-21T07:12:51;12.20;99.90
9810;DHT22;4944;52.514;13.192;2023-04-21T07:15:18;12.20;99.90
9810;DHT22;4944;52.514;13.192;2023-04-21T07:17:45;12.20;99.90
9810;DHT22;4944;52.514;13.192;2023-04-21T07:20:12;12.20;99.90
9810;DHT22;4944;52.514;13.192;2023-04-21T07:22:39;12.30;99.90
9810;DHT22;4944;52.514;13.192;2023-04-21T07:25:08;12.40;99.90
9810;DHT22;4944;52.514;13.192;2023-04-21T07:27:35;12.40;99.90
9810;DHT22;4944;52.514;13.192;2023-04-21T07:30:03;12.50;99.90
9810;DHT22;4944;52.514;13.192;2023-04-21T07:32:30;12.50;99.90
9810;DHT22;4944;52.514;13.192;2023-04-21T07:34:58;12.50;99.90
9810;DHT22;4944;52.514;13.192;2023-04-21T07:37:26;12.60;99.90
9810;DHT22;4944;52.514;13.192;2023-04-21T07:39:53;12.70;99.90
9810;DHT22;4944;52.514;13.192;2023-04-21T07:42:21;12.80;99.90
9810;DHT22;4944;52.514;13.192;2023-04-21T07:44:49;12.90;99.90
9810;DHT22;4944;52.514;13.192;2023-04-21T07:47:15;12.90;99.90
9810;DHT22;4944;52.514;13.192;2023-04-21T07:49:42;13.00;99.90
9810;DHT22;4944;52.514;13.192;2023-04-21T07:52:10;13.00;99.90
9810;DHT22;4944;52.514;13.192;2023-04-21T07:54:37;13.10;99.90
9810;DHT22;4944;52.514;13.192;2023-04-21T07:57:03;13.20;99.90
9810;DHT22;4944;52.514;13.192;2023-04-21T07:59:33;13.30;99.90
9810;DHT22;4944;52.514;13.192;2023-04-21T08:02:00;13.40;99.90
9810;DHT22;4944;52.514;13.192;2023-04-21T08:04:27;13.50;99.90
9810;DHT22;4944;52.514;13.192;2023-04-21T08:06:53;13.50;99.90
9810;DHT22;4944;52.514;13.192;2023-04-21T08:09:20;13.60;99.90
9810;DHT22;4944;52.514;13.192;2023-04-21T08:11:47;13.60;99.90
9810;DHT22;4944;52.514;13.192;2023-04-21T08:14:14;13.60;99.90
9810;DHT22;4944;52.514;13.192;2023-04-21T08:16:43;13.60;99.90
9810;DHT22;4944;52.514;13.192;2023-04-21T08:19:10;13.70;99.90
9810;DHT22;4944;52.514;13.192;2023-04-21T08:21:36;13.70;99.90
9810;DHT22;4944;52.514;13.192;2023-04-21T08:24:04;13.80;99.90
9810;DHT22;4944;52.514;13.192;2023-04-21T08:26:31;13.90;99.90
9810;DHT22;4944;52.514;13.192;2023-04-21T08:28:58;13.90;99.90
9810;DHT22;4944;52.514;13.192;2023-04-21T08:31:28;13.90;99.90
9810;DHT22;4944;52.514;13.192;2023-04-21T08:33:56;14.10;99.90
9810;DHT22;4944;52.514;13.192;2023-04-21T08:36:25;14.10;99.90
9810;DHT22;4944;52.514;13.192;2023-04-21T08:38:52;14.20;99.90
9810;DHT22;4944;52.514;13.192;2023-04-21T08:41:19;14.20;99.90
9810;DHT22;4944;52.514;13.192;2023-04-21T08:43:47;14.30;99.90
9810;DHT22;4944;52.514;13.192;2023-04-21T08:46:15;14.30;99.90
9810;DHT22;4944;52.514;13.192;2023-04-21T08:48:42;14.40;99.90
9810;DHT22;4944;52.514;13.192;2023-04-21T08:51:10;14.50;99.90
9810;DHT22;4944;52.514;13.192;2023-04-21T08:53:40;14.70;99.90
9810;DHT22;4944;52.514;13.192;2023-04-21T08:56:07;14.90;99.90
9810;DHT22;4944;52.514;13.192;2023-04-21T08:58:34;15.00;99.90
9810;DHT22;4944;52.514;13.192;2023-04-21T09:01:00;15.20;99.90
9810;DHT22;4944;52.514;13.192;2023-04-21T09:03:28;15.10;99.90
9810;DHT22;4944;52.514;13.192;2023-04-21T09:06:00;15.00;99.90
9810;DHT22;4944;52.514;13.192;2023-04-21T09:08:28;15.00;99.90
9810;DHT22;4944;52.514;13.192;2023-04-21T09:10:57;14.90;99.90
9810;DHT22;4944;52.514;13.192;2023-04-21T09:13:29;15.00;99.90
9810;DHT22;4944;52.514;13.192;2023-04-21T09:15:56;14.90;99.90
9810;DHT22;4944;52.514;13.192;2023-04-21T09:18:25;15.00;99.90
9810;DHT22;4944;52.514;13.192;2023-04-21T09:21:06;15.10;99.90
9810;DHT22;4944;52.514;13.192;2023-04-21T09:23:40;15.20;99.90
9810;DHT22;4944;52.514;13.192;2023-04-21T09:26:07;15.20;99.90
9810;DHT22;4944;52.514;13.192;2023-04-21T09:28:34;15.20;99.90
9810;DHT22;4944;52.514;13.192;2023-04-21T09:31:01;15.20;99.90
9810;DHT22;4944;52.514;13.192;2023-04-21T09:33:32;15.20;99.90
9810;DHT22;4944;52.514;13.192;2023-04-21T09:36:00;15.30;99.90
9810;DHT22;4944;52.514;13.192;2023-04-21T09:38:28;15.30;99.90
9810;DHT22;4944;52.514;13.192;2023-04-21T09:40:59;15.30;99.90
9810;DHT22;4944;52.514;13.192;2023-04-21T09:43:26;15.40;99.90
9810;DHT22;4944;52.514;13.192;2023-04-21T09:45:55;15.70;99.90
9810;DHT22;4944;52.514;13.192;2023-04-21T09:48:23;16.00;99.90
9810;DHT22;4944;52.514;13.192;2023-04-21T09:50:54;16.00;99.90
9810;DHT22;4944;52.514;13.192;2023-04-21T09:53:23;16.20;99.90
9810;DHT22;4944;52.514;13.192;2023-04-21T09:55:55;16.40;99.90
9810;DHT22;4944;52.514;13.192;2023-04-21T09:58:27;16.50;99.90
9810;DHT22;4944;52.514;13.192;2023-04-21T10:00:59;16.60;99.90
9810;DHT22;4944;52.514;13.192;2023-04-21T10:03:26;16.60;99.90
9810;DHT22;4944;52.514;13.192;2023-04-21T10:05:54;16.70;99.90
9810;DHT22;4944;52.514;13.192;2023-04-21T10:08:21;16.90;99.90
9810;DHT22;4944;52.514;13.192;2023-04-21T10:10:49;16.90;99.90
9810;DHT22;4944;52.514;13.192;2023-04-21T10:13:17;16.90;99.90
9810;DHT22;4944;52.514;13.192;2023-04-21T10:15:46;16.90;99.90
9810;DHT22;4944;52.514;13.192;2023-04-21T10:18:15;17.00;99.90
9810;DHT22;4944;52.514;13.192;2023-04-21T10:21:01;16.90;99.90
9810;DHT22;4944;52.514;13.192;2023-04-21T10:23:29;17.00;99.90
9810;DHT22;4944;52.514;13.192;2023-04-21T10:26:04;16.90;99.90
9810;DHT22;4944;52.514;13.192;2023-04-21T10:28:47;17.00;99.90
9810;DHT22;4944;52.514;13.192;2023-04-21T10:31:28;17.30;99.90
9810;DHT22;4944;52.514;13.192;2023-04-21T10:34:29;17.30;99.90
9810;DHT22;4944;52.514;13.192;2023-04-21T10:37:10;17.50;99.90
9810;DHT22;4944;52.514;13.192;2023-04-21T10:39:45;17.70;99.90
9810;DHT22;4944;52.514;13.192;2023-04-21T10:42:20;17.90;99.90
9810;DHT22;4944;52.514;13.192;2023-04-21T10:45:06;18.00;99.90
9810;DHT22;4944;52.514;13.192;2023-04-21T10:47:40;18.20;99.90
9810;DHT22;4944;52.514;13.192;2023-04-21T10:50:22;18.30;99.90
9810;DHT22;4944;52.514;13.192;2023-04-21T10:52:56;18.30;99.90
9810;DHT22;4944;52.514;13.192;2023-04-21T10:55:26;18.40;99.90
9810;DHT22;4944;52.514;13.192;2023-04-21T10:57:54;18.60;99.90
9810;DHT22;4944;52.514;13.192;2023-04-21T11:00:22;18.70;99.90
9810;DHT22;4944;52.514;13.192;2023-04-21T11:02:55;18.80;99.90
9810;DHT22;4944;52.514;13.192;2023-04-21T11:05:33;18.90;99.90
9810;DHT22;4944;52.514;13.192;2023-04-21T11:08:05;18.80;99.50
9810;DHT22;4944;52.514;13.192;2023-04-21T11:10:48;18.90;99.90
9810;DHT22;4944;52.514;13.192;2023-04-21T11:13:15;18.80;99.50
9810;DHT22;4944;52.514;13.192;2023-04-21T11:16:04;18.90;99.90
9810;DHT22;4944;52.514;13.192;2023-04-21T11:18:35;19.00;99.90
9810;DHT22;4944;52.514;13.192;2023-04-21T11:21:12;19.20;99.90
9810;DHT22;4944;52.514;13.192;2023-04-21T11:23:52;19.30;99.20
9810;DHT22;4944;52.514;13.192;2023-04-21T11:26:29;19.30;99.80
9810;DHT22;4944;52.514;13.192;2023-04-21T11:28:59;19.30;98.50
9810;DHT22;4944;52.514;13.192;2023-04-21T11:31:27;19.40;99.00
9810;DHT22;4944;52.514;13.192;2023-04-21T11:33:56;19.50;98.20
9810;DHT22;4944;52.514;13.192;2023-04-21T11:36:24;19.70;98.20
9810;DHT22;4944;52.514;13.192;2023-04-21T11:38:51;19.80;97.80
9810;DHT22;4944;52.514;13.192;2023-04-21T11:41:20;19.90;97.80
9810;DHT22;4944;52.514;13.192;2023-04-21T11:43:48;20.00;98.30
9810;DHT22;4944;52.514;13.192;2023-04-21T11:46:23;20.10;97.40
9810;DHT22;4944;52.514;13.192;2023-04-21T11:48:59;20.10;98.10
9810;DHT22;4944;52.514;13.192;2023-04-21T11:51:26;20.30;97.20
9810;DHT22;4944;52.514;13.192;2023-04-21T11:53:58;20.50;96.60
9810;DHT22;4944;52.514;13.192;2023-04-21T11:56:25;20.50;96.30
9810;DHT22;4944;52.514;13.192;2023-04-21T11:58:52;20.60;95.70
9810;DHT22;4944;52.514;13.192;2023-04-21T12:01:19;20.60;95.40
9810;DHT22;4944;52.514;13.192;2023-04-21T12:03:52;20.80;95.90
9810;DHT22;4944;52.514;13.192;2023-04-21T12:06:22;20.80;96.10
9810;DHT22;4944;52.514;13.192;2023-04-21T12:08:54;20.80;96.20
9810;DHT22;4944;52.514;13.192;2023-04-21T12:11:23;20.60;95.90
9810;DHT22;4944;52.514;13.192;2023-04-21T12:13:50;20.50;95.80
9810;DHT22;4944;52.514;13.192;2023-04-21T12:16:17;20.30;95.40
9810;DHT22;4944;52.514;13.192;2023-04-21T12:18:44;20.30;96.50
9810;DHT22;4944;52.514;13.192;2023-04-21T12:21:14;20.40;96.20
9810;DHT22;4944;52.514;13.192;2023-04-21T12:23:42;20.60;95.20
9810;DHT22;4944;52.514;13.192;2023-04-21T12:26:10;20.80;96.10
9810;DHT22;4944;52.514;13.192;2023-04-21T12:28:37;20.90;94.60
9810;DHT22;4944;52.514;13.192;2023-04-21T12:31:04;20.90;94.50
9810;DHT22;4944;52.514;13.192;2023-04-21T12:33:31;21.00;94.30
9810;DHT22;4944;52.514;13.192;2023-04-21T12:35:58;21.10;94.90
9810;DHT22;4944;52.514;13.192;2023-04-21T12:38:25;21.20;95.20
9810;DHT22;4944;52.514;13.192;2023-04-21T12:40:54;21.20;95.20
9810;DHT22;4944;52.514;13.192;2023-04-21T12:43:20;21.10;95.00
9810;DHT22;4944;52.514;13.192;2023-04-21T12:45:48;20.90;94.30
9810;DHT22;4944;52.514;13.192;2023-04-21T12:48:17;20.90;94.90
9810;DHT22;4944;52.514;13.192;2023-04-21T12:50:44;21.10;95.40
9810;DHT22;4944;52.514;13.192;2023-04-21T12:53:11;21.30;95.40
9810;DHT22;4944;52.514;13.192;2023-04-21T12:55:38;21.40;95.00
9810;DHT22;4944;52.514;13.192;2023-04-21T12:58:06;21.50;94.30
9810;DHT22;4944;52.514;13.192;2023-04-21T13:00:33;21.60;94.50
9810;DHT22;4944;52.514;13.192;2023-04-21T13:03:01;21.60;94.10
9810;DHT22;4944;52.514;13.192;2023-04-21T13:05:29;21.50;94.40
9810;DHT22;4944;52.514;13.192;2023-04-21T13:07:56;21.30;94.30
9810;DHT22;4944;52.514;13.192;2023-04-21T13:10:25;21.30;94.70
9810;DHT22;4944;52.514;13.192;2023-04-21T13:12:52;21.40;95.00
9810;DHT22;4944;52.514;13.192;2023-04-21T13:15:20;21.50;95.70
9810;DHT22;4944;52.514;13.192;2023-04-21T13:17:48;21.70;94.70
9810;DHT22;4944;52.514;13.192;2023-04-21T13:20:15;21.90;94.40
9810;DHT22;4944;52.514;13.192;2023-04-21T13:22:43;21.80;93.60
9810;DHT22;4944;52.514;13.192;2023-04-21T13:25:10;21.60;94.00
9810;DHT22;4944;52.514;13.192;2023-04-21T13:27:37;21.50;94.10
9810;DHT22;4944;52.514;13.192;2023-04-21T13:30:07;21.50;93.70
9810;DHT22;4944;52.514;13.192;2023-04-21T13:32:36;21.70;93.60
9810;DHT22;4944;52.514;13.192;2023-04-21T13:35:03;21.80;93.60
9810;DHT22;4944;52.514;13.192;2023-04-21T13:37:33;22.00;93.40
9810;DHT22;4944;52.514;13.192;2023-04-21T13:40:00;22.00;92.80
9810;DHT22;4944;52.514;13.192;2023-04-21T13:42:27;21.90;93.10
9810;DHT22;4944;52.514;13.192;2023-04-21T13:44:54;21.90;93.70
9810;DHT22;4944;52.514;13.192;2023-04-21T13:47:22;22.00;93.80
9810;DHT22;4944;52.514;13.192;2023-04-21T13:49:53;22.20;93.00
9810;DHT22;4944;52.514;13.192;2023-04-21T13:52:20;22.30;92.70
9810;DHT22;4944;52.514;13.192;2023-04-21T13:54:47;22.40;92.90
9810;DHT22;4944;52.514;13.192;2023-04-21T13:57:14;22.20;92.50
9810;DHT22;4944;52.514;13.192;2023-04-21T13:59:41;22.20;92.60
9810;DHT22;4944;52.514;13.192;2023-04-21T14:02:07;22.40;92.40
9810;DHT22;4944;52.514;13.192;2023-04-21T14:04:35;22.50;91.90
9810;DHT22;4944;52.514;13.192;2023-04-21T14:07:03;22.60;92.10
9810;DHT22;4944;52.514;13.192;2023-04-21T14:09:31;22.60;92.00
9810;DHT22;4944;52.514;13.192;2023-04-21T14:11:58;22.60;91.80
9810;DHT22;4944;52.514;13.192;2023-04-21T14:14:26;22.40;91.50
9810;DHT22;4944;52.514;13.192;2023-04-21T14:16:53;22.40;91.90
9810;DHT22;4944;52.514;13.192;2023-04-21T14:19:20;22.60;92.10
9810;DHT22;4944;52.514;13.192;2023-04-21T14:21:47;22.80;91.70
9810;DHT22;4944;52.514;13.192;2023-04-21T14:24:15;22.70;91.30
9810;DHT22;4944;52.514;13.192;2023-04-21T14:26:42;22.50;91.20
9810;DHT22;4944;52.514;13.192;2023-04-21T14:29:09;22.30;91.00
9810;DHT22;4944;52.514;13.192;2023-04-21T14:31:36;22.30;91.80
9810;DHT22;4944;52.514;13.192;2023-04-21T14:34:03;22.30;92.00
9810;DHT22;4944;52.514;13.192;2023-04-21T14:36:30;22.40;91.50
9810;DHT22;4944;52.514;13.192;2023-04-21T14:38:57;22.60;91.90
9810;DHT22;4944;52.514;13.192;2023-04-21T14:41:25;22.50;91.70
9810;DHT22;4944;52.514;13.192;2023-04-21T14:43:52;22.40;91.80
9810;DHT22;4944;52.514;13.192;2023-04-21T14:46:21;22.50;91.70
9810;DHT22;4944;52.514;13.192;2023-04-21T14:48:47;22.60;91.50
9810;DHT22;4944;52.514;13.192;2023-04-21T14:51:14;22.70;91.60
9810;DHT22;4944;52.514;13.192;2023-04-21T14:53:41;22.90;90.70
9810;DHT22;4944;52.514;13.192;2023-04-21T14:56:08;22.90;90.90
9810;DHT22;4944;52.514;13.192;2023-04-21T14:58:37;23.00;91.40
9810;DHT22;4944;52.514;13.192;2023-04-21T15:01:04;23.10;91.30
9810;DHT22;4944;52.514;13.192;2023-04-21T15:03:31;23.10;90.20
9810;DHT22;4944;52.514;13.192;2023-04-21T15:05:58;23.10;90.40
9810;DHT22;4944;52.514;13.192;2023-04-21T15:08:24;23.10;90.30
9810;DHT22;4944;52.514;13.192;2023-04-21T15:10:52;23.00;90.10
9810;DHT22;4944;52.514;13.192;2023-04-21T15:13:19;23.00;90.10
9810;DHT22;4944;52.514;13.192;2023-04-21T15:15:47;23.00;90.20
9810;DHT22;4944;52.514;13.192;2023-04-21T15:18:16;23.00;90.00
9810;DHT22;4944;52.514;13.192;2023-04-21T15:20:43;23.00;90.20
9810;DHT22;4944;52.514;13.192;2023-04-21T15:23:10;23.00;89.90
9810;DHT22;4944;52.514;13.192;2023-04-21T15:25:37;23.00;89.60
9810;DHT22;4944;52.514;13.192;2023-04-21T15:28:04;22.90;89.30
9810;DHT22;4944;52.514;13.192;2023-04-21T15:30:32;23.00;89.40
9810;DHT22;4944;52.514;13.192;2023-04-21T15:33:00;23.10;90.00
9810;DHT22;4944;52.514;13.192;2023-04-21T15:35:27;23.00;88.70
9810;DHT22;4944;52.514;13.192;2023-04-21T15:37:54;22.90;88.80
9810;DHT22;4944;52.514;13.192;2023-04-21T15:40:21;22.90;89.60
9810;DHT22;4944;52.514;13.192;2023-04-21T15:42:48;22.90;90.40
9810;DHT22;4944;52.514;13.192;2023-04-21T15:45:15;22.80;90.10
9810;DHT22;4944;52.514;13.192;2023-04-21T15:47:42;22.80;89.90
9810;DHT22;4944;52.514;13.192;2023-04-21T15:50:11;22.80;89.40